sensor_id;sensor_type;location;lat;lon;timestamp;P1;durP1;ratioP1;P2;durP2;ratioP2
37087;SDS011;23002;52.676;6.432;2024-03-22T00:00:15;38.95;;;17.77;;
37087;SDS011;23002;52.676;6.432;2024-03-22T00:02:41;43.90;;;19.02;;
37087;SDS011;23002;52.676;6.432;2024-03-22T00:05:07;42.55;;;18.90;;
37087;SDS011;23002;52.676;6.432;2024-03-22T00:07:33;40.70;;;19.00;;
37087;SDS011;23002;52.676;6.432;2024-03-22T00:10:00;38.78;;;19.08;;
37087;SDS011;23002;52.676;6.432;2024-03-22T00:12:26;38.08;;;18.40;;
37087;SDS011;23002;52.676;6.432;2024-03-22T00:14:52;38.53;;;19.08;;
37087;SDS011;23002;52.676;6.432;2024-03-22T00:17:20;38.67;;;18.63;;
37087;SDS011;23002;52.676;6.432;2024-03-22T00:19:46;39.40;;;18.75;;
37087;SDS011;23002;52.676;6.432;2024-03-22T00:22:12;42.35;;;19.95;;
37087;SDS011;23002;52.676;6.432;2024-03-22T00:24:38;45.75;;;19.98;;
37087;SDS011;23002;52.676;6.432;2024-03-22T00:27:05;41.28;;;19.65;;
37087;SDS011;23002;52.676;6.432;2024-03-22T00:29:31;38.85;;;19.25;;
37087;SDS011;23002;52.676;6.432;2024-03-22T00:31:57;39.90;;;18.80;;
37087;SDS011;23002;52.676;6.432;2024-03-22T00:34:24;40.47;;;20.75;;
37087;SDS011;23002;52.676;6.432;2024-03-22T00:36:50;39.80;;;19.83;;
37087;SDS011;23002;52.676;6.432;2024-03-22T00:39:16;47.35;;;21.08;;
37087;SDS011;23002;52.676;6.432;2024-03-22T00:41:43;41.58;;;19.88;;
37087;SDS011;23002;52.676;6.432;2024-03-22T00:44:09;44.20;;;20.35;;
37087;SDS011;23002;52.676;6.432;2024-03-22T00:46:35;43.08;;;20.73;;
37087;SDS011;23002;52.676;6.432;2024-03-22T00:49:02;45.80;;;21.17;;
37087;SDS011;23002;52.676;6.432;2024-03-22T00:51:28;41.80;;;19.70;;
37087;SDS011;23002;52.676;6.432;2024-03-22T00:53:55;44.10;;;21.10;;
37087;SDS011;23002;52.676;6.432;2024-03-22T00:56:21;41.65;;;21.00;;
37087;SDS011;23002;52.676;6.432;2024-03-22T00:58:48;42.85;;;20.80;;
37087;SDS011;23002;52.676;6.432;2024-03-22T01:01:14;43.13;;;20.70;;
37087;SDS011;23002;52.676;6.432;2024-03-22T01:03:40;46.33;;;22.05;;
37087;SDS011;23002;52.676;6.432;2024-03-22T01:06:07;44.95;;;20.70;;
37087;SDS011;23002;52.676;6.432;2024-03-22T01:08:33;43.97;;;20.80;;
37087;SDS011;23002;52.676;6.432;2024-03-22T01:11:00;45.60;;;21.50;;
37087;SDS011;23002;52.676;6.432;2024-03-22T01:13:26;43.25;;;20.52;;
37087;SDS011;23002;52.676;6.432;2024-03-22T01:15:52;46.50;;;20.80;;
37087;SDS011;23002;52.676;6.432;2024-03-22T01:18:19;42.80;;;21.38;;
37087;SDS011;23002;52.676;6.432;2024-03-22T01:20:45;44.40;;;21.95;;
37087;SDS011;23002;52.676;6.432;2024-03-22T01:23:11;41.75;;;20.02;;
37087;SDS011;23002;52.676;6.432;2024-03-22T01:25:38;43.05;;;20.70;;
37087;SDS011;23002;52.676;6.432;2024-03-22T01:28:04;48.90;;;21.48;;
37087;SDS011;23002;52.676;6.432;2024-03-22T01:30:30;42.30;;;21.45;;
37087;SDS011;23002;52.676;6.432;2024-03-22T01:32:59;45.78;;;21.45;;
37087;SDS011;23002;52.676;6.432;2024-03-22T01:35:25;45.03;;;21.60;;
37087;SDS011;23002;52.676;6.432;2024-03-22T01:37:51;47.42;;;22.70;;
37087;SDS011;23002;52.676;6.432;2024-03-22T01:40:18;44.72;;;20.38;;
37087;SDS011;23002;52.676;6.432;2024-03-22T01:42:44;44.40;;;20.92;;
37087;SDS011;23002;52.676;6.432;2024-03-22T01:45:11;48.83;;;21.50;;
37087;SDS011;23002;52.676;6.432;2024-03-22T01:47:40;43.05;;;19.85;;
37087;SDS011;23002;52.676;6.432;2024-03-22T01:50:06;45.63;;;21.25;;
37087;SDS011;23002;52.676;6.432;2024-03-22T01:52:33;45.03;;;21.52;;
37087;SDS011;23002;52.676;6.432;2024-03-22T01:55:00;45.50;;;21.77;;
37087;SDS011;23002;52.676;6.432;2024-03-22T01:57:27;48.40;;;22.42;;
37087;SDS011;23002;52.676;6.432;2024-03-22T01:59:53;50.72;;;21.77;;
37087;SDS011;23002;52.676;6.432;2024-03-22T02:02:21;44.70;;;21.25;;
37087;SDS011;23002;52.676;6.432;2024-03-22T02:04:50;49.08;;;22.48;;
37087;SDS011;23002;52.676;6.432;2024-03-22T02:07:16;43.65;;;21.52;;
37087;SDS011;23002;52.676;6.432;2024-03-22T02:09:42;48.05;;;22.05;;
37087;SDS011;23002;52.676;6.432;2024-03-22T02:12:09;48.28;;;22.45;;
37087;SDS011;23002;52.676;6.432;2024-03-22T02:14:35;47.08;;;21.48;;
37087;SDS011;23002;52.676;6.432;2024-03-22T02:17:01;45.85;;;21.02;;
37087;SDS011;23002;52.676;6.432;2024-03-22T02:19:28;47.38;;;21.27;;
37087;SDS011;23002;52.676;6.432;2024-03-22T02:21:54;47.40;;;22.15;;
37087;SDS011;23002;52.676;6.432;2024-03-22T02:24:20;49.72;;;23.02;;
37087;SDS011;23002;52.676;6.432;2024-03-22T02:26:47;46.05;;;22.88;;
37087;SDS011;23002;52.676;6.432;2024-03-22T02:29:13;46.10;;;21.33;;
37087;SDS011;23002;52.676;6.432;2024-03-22T02:31:39;47.20;;;21.98;;
37087;SDS011;23002;52.676;6.432;2024-03-22T02:34:05;48.60;;;22.17;;
37087;SDS011;23002;52.676;6.432;2024-03-22T02:36:31;45.97;;;21.17;;
37087;SDS011;23002;52.676;6.432;2024-03-22T02:38:58;44.95;;;22.50;;
37087;SDS011;23002;52.676;6.432;2024-03-22T02:41:24;50.05;;;22.75;;
37087;SDS011;23002;52.676;6.432;2024-03-22T02:43:51;47.30;;;22.02;;
37087;SDS011;23002;52.676;6.432;2024-03-22T02:46:17;48.10;;;21.33;;
37087;SDS011;23002;52.676;6.432;2024-03-22T02:48:43;46.00;;;21.52;;
37087;SDS011;23002;52.676;6.432;2024-03-22T02:51:09;50.58;;;23.08;;
37087;SDS011;23002;52.676;6.432;2024-03-22T02:53:36;46.08;;;21.60;;
37087;SDS011;23002;52.676;6.432;2024-03-22T02:56:02;47.47;;;22.90;;
37087;SDS011;23002;52.676;6.432;2024-03-22T02:58:29;46.03;;;22.10;;
37087;SDS011;23002;52.676;6.432;2024-03-22T03:00:56;45.90;;;23.00;;
37087;SDS011;23002;52.676;6.432;2024-03-22T03:03:22;46.60;;;22.65;;
37087;SDS011;23002;52.676;6.432;2024-03-22T03:05:48;47.42;;;21.58;;
37087;SDS011;23002;52.676;6.432;2024-03-22T03:08:14;48.25;;;20.92;;
37087;SDS011;23002;52.676;6.432;2024-03-22T03:10:40;43.47;;;22.02;;
37087;SDS011;23002;52.676;6.432;2024-03-22T03:13:07;50.22;;;22.80;;
37087;SDS011;23002;52.676;6.432;2024-03-22T03:15:33;43.03;;;20.42;;
37087;SDS011;23002;52.676;6.432;2024-03-22T03:17:59;48.47;;;22.08;;
37087;SDS011;23002;52.676;6.432;2024-03-22T03:20:26;52.03;;;22.48;;
37087;SDS011;23002;52.676;6.432;2024-03-22T03:22:52;49.25;;;22.70;;
37087;SDS011;23002;52.676;6.432;2024-03-22T03:25:18;47.78;;;21.80;;
37087;SDS011;23002;52.676;6.432;2024-03-22T03:27:45;46.10;;;21.95;;
37087;SDS011;23002;52.676;6.432;2024-03-22T03:30:11;44.67;;;21.52;;
37087;SDS011;23002;52.676;6.432;2024-03-22T03:32:37;45.45;;;21.45;;
37087;SDS011;23002;52.676;6.432;2024-03-22T03:35:04;42.28;;;21.58;;
37087;SDS011;23002;52.676;6.432;2024-03-22T03:37:30;45.53;;;21.52;;
37087;SDS011;23002;52.676;6.432;2024-03-22T03:39:56;40.63;;;20.85;;
37087;SDS011;23002;52.676;6.432;2024-03-22T03:42:23;47.38;;;20.98;;
37087;SDS011;23002;52.676;6.432;2024-03-22T03:44:49;46.97;;;21.60;;
37087;SDS011;23002;52.676;6.432;2024-03-22T03:47:15;47.58;;;21.95;;
37087;SDS011;23002;52.676;6.432;2024-03-22T03:49:41;42.00;;;21.88;;
37087;SDS011;23002;52.676;6.432;2024-03-22T03:52:08;46.95;;;22.75;;
37087;SDS011;23002;52.676;6.432;2024-03-22T03:54:34;42.15;;;20.02;;
37087;SDS011;23002;52.676;6.432;2024-03-22T03:57:01;46.85;;;21.27;;
37087;SDS011;23002;52.676;6.432;2024-03-22T03:59:27;44.45;;;21.48;;
37087;SDS011;23002;52.676;6.432;2024-03-22T04:01:53;40.83;;;21.23;;
37087;SDS011;23002;52.676;6.432;2024-03-22T04:04:20;47.20;;;22.52;;
37087;SDS011;23002;52.676;6.432;2024-03-22T04:06:46;47.42;;;21.40;;
37087;SDS011;23002;52.676;6.432;2024-03-22T04:09:12;45.28;;;22.33;;
37087;SDS011;23002;52.676;6.432;2024-03-22T04:11:39;49.15;;;21.13;;
37087;SDS011;23002;52.676;6.432;2024-03-22T04:14:05;44.22;;;22.15;;
37087;SDS011;23002;52.676;6.432;2024-03-22T04:16:32;44.13;;;22.00;;
37087;SDS011;23002;52.676;6.432;2024-03-22T04:18:58;44.78;;;21.92;;
37087;SDS011;23002;52.676;6.432;2024-03-22T04:21:24;47.30;;;21.70;;
37087;SDS011;23002;52.676;6.432;2024-03-22T04:23:51;44.17;;;21.77;;
37087;SDS011;23002;52.676;6.432;2024-03-22T04:26:17;48.17;;;23.13;;
37087;SDS011;23002;52.676;6.432;2024-03-22T04:28:44;53.83;;;24.13;;
37087;SDS011;23002;52.676;6.432;2024-03-22T04:31:10;51.67;;;23.00;;
37087;SDS011;23002;52.676;6.432;2024-03-22T04:33:37;49.80;;;22.75;;
37087;SDS011;23002;52.676;6.432;2024-03-22T04:36:03;50.60;;;22.92;;
37087;SDS011;23002;52.676;6.432;2024-03-22T04:38:30;50.97;;;24.33;;
37087;SDS011;23002;52.676;6.432;2024-03-22T04:40:56;51.60;;;23.30;;
37087;SDS011;23002;52.676;6.432;2024-03-22T04:43:23;53.53;;;23.38;;
37087;SDS011;23002;52.676;6.432;2024-03-22T04:45:50;50.13;;;23.40;;
37087;SDS011;23002;52.676;6.432;2024-03-22T04:48:17;50.70;;;23.17;;
37087;SDS011;23002;52.676;6.432;2024-03-22T04:50:44;55.03;;;23.42;;
37087;SDS011;23002;52.676;6.432;2024-03-22T04:53:10;53.55;;;24.00;;
37087;SDS011;23002;52.676;6.432;2024-03-22T04:55:37;53.35;;;23.55;;
37087;SDS011;23002;52.676;6.432;2024-03-22T04:58:03;50.42;;;24.60;;
37087;SDS011;23002;52.676;6.432;2024-03-22T05:00:29;55.97;;;23.02;;
37087;SDS011;23002;52.676;6.432;2024-03-22T05:02:56;58.47;;;24.10;;
37087;SDS011;23002;52.676;6.432;2024-03-22T05:05:22;52.47;;;24.77;;
37087;SDS011;23002;52.676;6.432;2024-03-22T05:07:48;50.42;;;22.98;;
37087;SDS011;23002;52.676;6.432;2024-03-22T05:10:15;57.30;;;23.67;;
37087;SDS011;23002;52.676;6.432;2024-03-22T05:12:42;52.65;;;22.58;;
37087;SDS011;23002;52.676;6.432;2024-03-22T05:15:08;51.38;;;23.48;;
37087;SDS011;23002;52.676;6.432;2024-03-22T05:17:36;54.75;;;21.83;;
37087;SDS011;23002;52.676;6.432;2024-03-22T05:20:02;48.90;;;22.55;;
37087;SDS011;23002;52.676;6.432;2024-03-22T05:22:29;52.92;;;24.42;;
37087;SDS011;23002;52.676;6.432;2024-03-22T05:24:55;51.13;;;23.17;;
37087;SDS011;23002;52.676;6.432;2024-03-22T05:27:21;46.35;;;22.92;;
37087;SDS011;23002;52.676;6.432;2024-03-22T05:29:47;49.05;;;23.38;;
37087;SDS011;23002;52.676;6.432;2024-03-22T05:32:14;48.05;;;22.05;;
37087;SDS011;23002;52.676;6.432;2024-03-22T05:34:40;48.28;;;21.60;;
37087;SDS011;23002;52.676;6.432;2024-03-22T05:37:06;45.88;;;20.98;;
37087;SDS011;23002;52.676;6.432;2024-03-22T05:39:34;47.53;;;22.15;;
37087;SDS011;23002;52.676;6.432;2024-03-22T05:42:00;47.95;;;23.27;;
37087;SDS011;23002;52.676;6.432;2024-03-22T05:44:27;47.30;;;20.88;;
37087;SDS011;23002;52.676;6.432;2024-03-22T05:46:53;49.97;;;22.65;;
37087;SDS011;23002;52.676;6.432;2024-03-22T05:49:19;49.90;;;22.58;;
37087;SDS011;23002;52.676;6.432;2024-03-22T05:51:45;48.53;;;21.70;;
37087;SDS011;23002;52.676;6.432;2024-03-22T05:54:12;51.45;;;23.65;;
37087;SDS011;23002;52.676;6.432;2024-03-22T05:56:38;60.10;;;25.38;;
37087;SDS011;23002;52.676;6.432;2024-03-22T05:59:04;55.75;;;25.05;;
37087;SDS011;23002;52.676;6.432;2024-03-22T06:01:31;58.17;;;26.42;;
37087;SDS011;23002;52.676;6.432;2024-03-22T06:03:58;61.70;;;27.02;;
37087;SDS011;23002;52.676;6.432;2024-03-22T06:06:24;63.50;;;27.05;;
37087;SDS011;23002;52.676;6.432;2024-03-22T06:08:51;57.92;;;24.88;;
37087;SDS011;23002;52.676;6.432;2024-03-22T06:11:19;69.07;;;27.20;;
37087;SDS011;23002;52.676;6.432;2024-03-22T06:13:47;57.90;;;23.75;;
37087;SDS011;23002;52.676;6.432;2024-03-22T06:16:13;59.15;;;25.38;;
37087;SDS011;23002;52.676;6.432;2024-03-22T06:18:40;55.33;;;24.00;;
37087;SDS011;23002;52.676;6.432;2024-03-22T06:21:06;56.90;;;23.55;;
37087;SDS011;23002;52.676;6.432;2024-03-22T06:23:32;56.72;;;24.58;;
37087;SDS011;23002;52.676;6.432;2024-03-22T06:25:59;56.90;;;23.25;;
37087;SDS011;23002;52.676;6.432;2024-03-22T06:28:27;56.63;;;22.50;;
37087;SDS011;23002;52.676;6.432;2024-03-22T06:30:53;54.33;;;22.70;;
37087;SDS011;23002;52.676;6.432;2024-03-22T06:33:20;53.70;;;22.23;;
37087;SDS011;23002;52.676;6.432;2024-03-22T06:35:47;49.22;;;21.52;;
37087;SDS011;23002;52.676;6.432;2024-03-22T06:38:13;57.38;;;23.30;;
37087;SDS011;23002;52.676;6.432;2024-03-22T06:40:39;53.25;;;22.15;;
37087;SDS011;23002;52.676;6.432;2024-03-22T06:43:06;43.40;;;19.20;;
37087;SDS011;23002;52.676;6.432;2024-03-22T06:45:32;48.85;;;20.95;;
37087;SDS011;23002;52.676;6.432;2024-03-22T06:47:58;50.53;;;20.73;;
37087;SDS011;23002;52.676;6.432;2024-03-22T06:50:24;55.28;;;20.58;;
37087;SDS011;23002;52.676;6.432;2024-03-22T06:52:54;55.88;;;19.65;;
37087;SDS011;23002;52.676;6.432;2024-03-22T06:55:20;45.15;;;20.20;;
37087;SDS011;23002;52.676;6.432;2024-03-22T06:57:47;45.42;;;19.30;;
37087;SDS011;23002;52.676;6.432;2024-03-22T07:00:14;47.38;;;20.13;;
37087;SDS011;23002;52.676;6.432;2024-03-22T07:02:40;45.00;;;19.67;;
37087;SDS011;23002;52.676;6.432;2024-03-22T07:05:07;43.22;;;18.17;;
37087;SDS011;23002;52.676;6.432;2024-03-22T07:07:33;38.95;;;17.83;;
37087;SDS011;23002;52.676;6.432;2024-03-22T07:10:00;37.50;;;18.08;;
37087;SDS011;23002;52.676;6.432;2024-03-22T07:12:26;42.33;;;16.42;;
37087;SDS011;23002;52.676;6.432;2024-03-22T07:14:53;33.53;;;15.57;;
37087;SDS011;23002;52.676;6.432;2024-03-22T07:17:19;32.65;;;16.70;;
37087;SDS011;23002;52.676;6.432;2024-03-22T07:19:52;32.72;;;14.57;;
37087;SDS011;23002;52.676;6.432;2024-03-22T07:22:20;30.60;;;15.50;;
37087;SDS011;23002;52.676;6.432;2024-03-22T07:24:46;34.13;;;15.40;;
37087;SDS011;23002;52.676;6.432;2024-03-22T07:27:13;34.92;;;14.57;;
37087;SDS011;23002;52.676;6.432;2024-03-22T07:29:46;34.03;;;15.32;;
37087;SDS011;23002;52.676;6.432;2024-03-22T07:32:12;34.42;;;14.07;;
37087;SDS011;23002;52.676;6.432;2024-03-22T07:34:39;36.58;;;15.23;;
37087;SDS011;23002;52.676;6.432;2024-03-22T07:37:05;29.38;;;13.63;;
37087;SDS011;23002;52.676;6.432;2024-03-22T07:39:31;30.75;;;13.05;;
37087;SDS011;23002;52.676;6.432;2024-03-22T07:41:58;36.90;;;13.15;;
37087;SDS011;23002;52.676;6.432;2024-03-22T07:44:25;28.17;;;12.38;;
37087;SDS011;23002;52.676;6.432;2024-03-22T07:46:54;30.00;;;11.75;;
37087;SDS011;23002;52.676;6.432;2024-03-22T07:49:20;26.23;;;11.65;;
37087;SDS011;23002;52.676;6.432;2024-03-22T07:51:47;22.75;;;11.63;;
37087;SDS011;23002;52.676;6.432;2024-03-22T07:54:13;31.27;;;11.10;;
37087;SDS011;23002;52.676;6.432;2024-03-22T07:56:39;32.58;;;11.68;;
37087;SDS011;23002;52.676;6.432;2024-03-22T07:59:05;21.52;;;10.20;;
37087;SDS011;23002;52.676;6.432;2024-03-22T08:01:31;24.10;;;10.50;;
37087;SDS011;23002;52.676;6.432;2024-03-22T08:03:58;23.17;;;11.25;;
37087;SDS011;23002;52.676;6.432;2024-03-22T08:06:24;25.70;;;10.55;;
37087;SDS011;23002;52.676;6.432;2024-03-22T08:08:50;28.33;;;10.85;;
37087;SDS011;23002;52.676;6.432;2024-03-22T08:11:16;26.73;;;10.07;;
37087;SDS011;23002;52.676;6.432;2024-03-22T08:13:43;23.60;;;10.02;;
37087;SDS011;23002;52.676;6.432;2024-03-22T08:16:09;23.88;;;10.40;;
37087;SDS011;23002;52.676;6.432;2024-03-22T08:18:35;25.38;;;9.70;;
37087;SDS011;23002;52.676;6.432;2024-03-22T08:21:03;20.63;;;8.98;;
37087;SDS011;23002;52.676;6.432;2024-03-22T08:23:29;24.20;;;9.57;;
37087;SDS011;23002;52.676;6.432;2024-03-22T08:25:55;21.13;;;8.93;;
37087;SDS011;23002;52.676;6.432;2024-03-22T08:28:22;21.15;;;8.90;;
37087;SDS011;23002;52.676;6.432;2024-03-22T08:30:49;19.80;;;8.80;;
37087;SDS011;23002;52.676;6.432;2024-03-22T08:33:15;24.02;;;8.85;;
37087;SDS011;23002;52.676;6.432;2024-03-22T08:35:41;22.77;;;9.00;;
37087;SDS011;23002;52.676;6.432;2024-03-22T08:38:08;18.63;;;8.23;;
37087;SDS011;23002;52.676;6.432;2024-03-22T08:40:39;20.90;;;9.00;;
37087;SDS011;23002;52.676;6.432;2024-03-22T08:43:08;22.27;;;8.57;;
37087;SDS011;23002;52.676;6.432;2024-03-22T08:45:34;19.02;;;8.35;;
37087;SDS011;23002;52.676;6.432;2024-03-22T08:48:01;20.70;;;8.77;;
37087;SDS011;23002;52.676;6.432;2024-03-22T08:50:28;20.05;;;8.35;;
37087;SDS011;23002;52.676;6.432;2024-03-22T08:52:54;18.70;;;8.52;;
37087;SDS011;23002;52.676;6.432;2024-03-22T08:55:20;21.48;;;7.72;;
37087;SDS011;23002;52.676;6.432;2024-03-22T08:57:46;20.40;;;9.50;;
37087;SDS011;23002;52.676;6.432;2024-03-22T09:00:13;17.55;;;8.35;;
37087;SDS011;23002;52.676;6.432;2024-03-22T09:02:39;21.30;;;8.55;;
37087;SDS011;23002;52.676;6.432;2024-03-22T09:05:05;23.70;;;8.57;;
37087;SDS011;23002;52.676;6.432;2024-03-22T09:07:33;25.42;;;9.52;;
37087;SDS011;23002;52.676;6.432;2024-03-22T09:10:00;18.83;;;9.15;;
37087;SDS011;23002;52.676;6.432;2024-03-22T09:12:26;18.58;;;9.05;;
37087;SDS011;23002;52.676;6.432;2024-03-22T09:14:53;18.52;;;8.88;;
37087;SDS011;23002;52.676;6.432;2024-03-22T09:17:19;19.65;;;9.18;;
37087;SDS011;23002;52.676;6.432;2024-03-22T09:19:45;18.55;;;8.98;;
37087;SDS011;23002;52.676;6.432;2024-03-22T09:22:11;24.60;;;9.77;;
37087;SDS011;23002;52.676;6.432;2024-03-22T09:24:38;21.45;;;9.45;;
37087;SDS011;23002;52.676;6.432;2024-03-22T09:27:04;20.45;;;9.75;;
37087;SDS011;23002;52.676;6.432;2024-03-22T09:29:34;27.73;;;9.75;;
37087;SDS011;23002;52.676;6.432;2024-03-22T09:32:01;19.40;;;9.88;;
37087;SDS011;23002;52.676;6.432;2024-03-22T09:34:27;19.85;;;9.73;;
37087;SDS011;23002;52.676;6.432;2024-03-22T09:36:55;27.25;;;10.45;;
37087;SDS011;23002;52.676;6.432;2024-03-22T09:39:21;19.52;;;9.13;;
37087;SDS011;23002;52.676;6.432;2024-03-22T09:41:48;20.23;;;9.75;;
37087;SDS011;23002;52.676;6.432;2024-03-22T09:44:17;18.35;;;9.45;;
37087;SDS011;23002;52.676;6.432;2024-03-22T09:46:46;20.45;;;10.48;;
37087;SDS011;23002;52.676;6.432;2024-03-22T09:49:13;20.67;;;10.35;;
37087;SDS011;23002;52.676;6.432;2024-03-22T09:51:39;20.27;;;9.60;;
37087;SDS011;23002;52.676;6.432;2024-03-22T09:54:08;22.15;;;9.73;;
37087;SDS011;23002;52.676;6.432;2024-03-22T09:56:35;19.40;;;9.93;;
37087;SDS011;23002;52.676;6.432;2024-03-22T09:59:04;19.52;;;9.43;;
37087;SDS011;23002;52.676;6.432;2024-03-22T10:01:33;22.05;;;10.32;;
37087;SDS011;23002;52.676;6.432;2024-03-22T10:04:00;18.27;;;9.05;;
37087;SDS011;23002;52.676;6.432;2024-03-22T10:06:26;16.85;;;9.32;;
37087;SDS011;23002;52.676;6.432;2024-03-22T10:08:53;23.52;;;9.90;;
37087;SDS011;23002;52.676;6.432;2024-03-22T10:11:19;18.42;;;10.35;;
37087;SDS011;23002;52.676;6.432;2024-03-22T10:13:46;20.50;;;9.68;;
37087;SDS011;23002;52.676;6.432;2024-03-22T10:16:16;16.40;;;9.68;;
37087;SDS011;23002;52.676;6.432;2024-03-22T10:18:42;20.30;;;9.75;;
37087;SDS011;23002;52.676;6.432;2024-03-22T10:21:09;16.85;;;9.32;;
37087;SDS011;23002;52.676;6.432;2024-03-22T10:23:35;16.63;;;9.32;;
37087;SDS011;23002;52.676;6.432;2024-03-22T10:26:01;13.68;;;8.55;;
37087;SDS011;23002;52.676;6.432;2024-03-22T10:28:29;19.67;;;8.93;;
37087;SDS011;23002;52.676;6.432;2024-03-22T10:30:55;18.45;;;9.07;;
37087;SDS011;23002;52.676;6.432;2024-03-22T10:33:22;15.13;;;8.68;;
37087;SDS011;23002;52.676;6.432;2024-03-22T10:35:52;15.68;;;8.18;;
37087;SDS011;23002;52.676;6.432;2024-03-22T10:38:19;15.77;;;8.73;;
37087;SDS011;23002;52.676;6.432;2024-03-22T10:40:46;16.88;;;9.05;;
37087;SDS011;23002;52.676;6.432;2024-03-22T10:43:16;17.55;;;8.88;;
37087;SDS011;23002;52.676;6.432;2024-03-22T10:45:42;14.68;;;8.70;;
37087;SDS011;23002;52.676;6.432;2024-03-22T10:48:09;15.27;;;7.70;;
37087;SDS011;23002;52.676;6.432;2024-03-22T10:50:39;15.52;;;7.03;;
37087;SDS011;23002;52.676;6.432;2024-03-22T10:53:09;15.13;;;8.50;;
37087;SDS011;23002;52.676;6.432;2024-03-22T10:55:36;12.50;;;7.55;;
37087;SDS011;23002;52.676;6.432;2024-03-22T10:58:03;15.68;;;7.55;;
37087;SDS011;23002;52.676;6.432;2024-03-22T11:00:30;15.88;;;7.82;;
37087;SDS011;23002;52.676;6.432;2024-03-22T11:02:57;13.45;;;6.93;;
37087;SDS011;23002;52.676;6.432;2024-03-22T11:05:25;11.95;;;7.30;;
37087;SDS011;23002;52.676;6.432;2024-03-22T11:08:01;11.13;;;6.88;;
37087;SDS011;23002;52.676;6.432;2024-03-22T11:10:30;13.20;;;6.45;;
37087;SDS011;23002;52.676;6.432;2024-03-22T11:13:06;11.02;;;6.32;;
37087;SDS011;23002;52.676;6.432;2024-03-22T11:15:33;10.25;;;6.47;;
37087;SDS011;23002;52.676;6.432;2024-03-22T11:18:00;12.95;;;6.43;;
37087;SDS011;23002;52.676;6.432;2024-03-22T11:20:26;10.00;;;5.43;;
37087;SDS011;23002;52.676;6.432;2024-03-22T11:22:53;11.02;;;5.85;;
37087;SDS011;23002;52.676;6.432;2024-03-22T11:25:19;9.80;;;5.60;;
37087;SDS011;23002;52.676;6.432;2024-03-22T11:27:46;10.07;;;6.35;;
37087;SDS011;23002;52.676;6.432;2024-03-22T11:30:13;12.40;;;6.07;;
37087;SDS011;23002;52.676;6.432;2024-03-22T11:32:43;11.00;;;6.40;;
37087;SDS011;23002;52.676;6.432;2024-03-22T11:35:11;9.20;;;5.85;;
37087;SDS011;23002;52.676;6.432;2024-03-22T11:37:41;10.10;;;5.88;;
37087;SDS011;23002;52.676;6.432;2024-03-22T11:40:10;11.43;;;6.15;;
37087;SDS011;23002;52.676;6.432;2024-03-22T11:42:41;10.23;;;5.75;;
37087;SDS011;23002;52.676;6.432;2024-03-22T11:45:08;9.85;;;5.78;;
37087;SDS011;23002;52.676;6.432;2024-03-22T11:47:35;8.88;;;5.78;;
37087;SDS011;23002;52.676;6.432;2024-03-22T11:50:02;11.40;;;5.68;;
37087;SDS011;23002;52.676;6.432;2024-03-22T11:52:29;9.63;;;5.38;;
37087;SDS011;23002;52.676;6.432;2024-03-22T11:54:55;9.82;;;5.93;;
37087;SDS011;23002;52.676;6.432;2024-03-22T11:57:22;12.32;;;5.93;;
37087;SDS011;23002;52.676;6.432;2024-03-22T11:59:49;9.32;;;5.05;;
37087;SDS011;23002;52.676;6.432;2024-03-22T12:02:16;8.05;;;4.72;;
37087;SDS011;23002;52.676;6.432;2024-03-22T12:04:43;9.13;;;4.95;;
37087;SDS011;23002;52.676;6.432;2024-03-22T12:07:11;8.15;;;4.53;;
37087;SDS011;23002;52.676;6.432;2024-03-22T12:09:37;9.00;;;5.53;;
37087;SDS011;23002;52.676;6.432;2024-03-22T12:12:05;7.65;;;4.72;;
37087;SDS011;23002;52.676;6.432;2024-03-22T12:14:32;6.35;;;3.88;;
37087;SDS011;23002;52.676;6.432;2024-03-22T12:17:00;7.18;;;4.30;;
37087;SDS011;23002;52.676;6.432;2024-03-22T12:19:26;7.72;;;4.60;;
37087;SDS011;23002;52.676;6.432;2024-03-22T12:21:52;6.20;;;4.15;;
37087;SDS011;23002;52.676;6.432;2024-03-22T12:24:19;7.45;;;4.43;;
37087;SDS011;23002;52.676;6.432;2024-03-22T12:26:45;6.82;;;4.00;;
37087;SDS011;23002;52.676;6.432;2024-03-22T12:29:12;7.63;;;3.97;;
37087;SDS011;23002;52.676;6.432;2024-03-22T12:31:39;8.32;;;4.50;;
37087;SDS011;23002;52.676;6.432;2024-03-22T12:34:06;5.40;;;3.47;;
37087;SDS011;23002;52.676;6.432;2024-03-22T12:36:33;6.18;;;3.70;;
37087;SDS011;23002;52.676;6.432;2024-03-22T12:38:59;5.28;;;3.42;;
37087;SDS011;23002;52.676;6.432;2024-03-22T12:41:26;6.25;;;3.20;;
37087;SDS011;23002;52.676;6.432;2024-03-22T12:43:54;5.43;;;3.20;;
37087;SDS011;23002;52.676;6.432;2024-03-22T12:46:20;4.38;;;2.63;;
37087;SDS011;23002;52.676;6.432;2024-03-22T12:48:47;4.85;;;2.97;;
37087;SDS011;23002;52.676;6.432;2024-03-22T12:51:13;4.38;;;2.60;;
37087;SDS011;23002;52.676;6.432;2024-03-22T12:53:40;3.90;;;2.42;;
37087;SDS011;23002;52.676;6.432;2024-03-22T12:56:06;3.45;;;2.17;;
37087;SDS011;23002;52.676;6.432;2024-03-22T12:58:33;4.63;;;1.92;;
37087;SDS011;23002;52.676;6.432;2024-03-22T13:00:59;4.32;;;2.45;;
37087;SDS011;23002;52.676;6.432;2024-03-22T13:03:27;3.67;;;2.20;;
37087;SDS011;23002;52.676;6.432;2024-03-22T13:05:54;3.42;;;2.40;;
37087;SDS011;23002;52.676;6.432;2024-03-22T13:08:20;2.85;;;1.50;;
37087;SDS011;23002;52.676;6.432;2024-03-22T13:10:47;2.63;;;1.60;;
37087;SDS011;23002;52.676;6.432;2024-03-22T13:13:13;9.93;;;3.80;;
37087;SDS011;23002;52.676;6.432;2024-03-22T13:15:42;9.20;;;5.70;;
37087;SDS011;23002;52.676;6.432;2024-03-22T13:18:09;9.38;;;5.07;;
37087;SDS011;23002;52.676;6.432;2024-03-22T13:20:35;8.18;;;3.05;;
37087;SDS011;23002;52.676;6.432;2024-03-22T13:23:02;13.32;;;6.80;;
37087;SDS011;23002;52.676;6.432;2024-03-22T13:25:28;8.40;;;3.80;;
37087;SDS011;23002;52.676;6.432;2024-03-22T13:27:55;14.65;;;7.50;;
37087;SDS011;23002;52.676;6.432;2024-03-22T13:30:21;10.90;;;4.10;;
37087;SDS011;23002;52.676;6.432;2024-03-22T13:32:48;13.07;;;5.18;;
37087;SDS011;23002;52.676;6.432;2024-03-22T13:35:14;15.15;;;8.13;;
37087;SDS011;23002;52.676;6.432;2024-03-22T13:37:41;7.65;;;3.75;;
37087;SDS011;23002;52.676;6.432;2024-03-22T13:40:07;7.53;;;3.28;;
37087;SDS011;23002;52.676;6.432;2024-03-22T13:42:34;17.55;;;7.30;;
37087;SDS011;23002;52.676;6.432;2024-03-22T13:45:00;7.90;;;4.32;;
37087;SDS011;23002;52.676;6.432;2024-03-22T13:47:26;16.50;;;8.02;;
37087;SDS011;23002;52.676;6.432;2024-03-22T13:49:55;14.52;;;7.50;;
37087;SDS011;23002;52.676;6.432;2024-03-22T13:52:22;12.30;;;6.80;;
37087;SDS011;23002;52.676;6.432;2024-03-22T13:54:48;12.18;;;6.10;;
37087;SDS011;23002;52.676;6.432;2024-03-22T13:57:17;15.68;;;8.52;;
37087;SDS011;23002;52.676;6.432;2024-03-22T13:59:43;17.73;;;6.13;;
37087;SDS011;23002;52.676;6.432;2024-03-22T14:02:11;11.30;;;5.10;;
37087;SDS011;23002;52.676;6.432;2024-03-22T14:04:37;12.73;;;3.80;;
37087;SDS011;23002;52.676;6.432;2024-03-22T14:07:04;11.23;;;5.45;;
37087;SDS011;23002;52.676;6.432;2024-03-22T14:09:33;14.93;;;6.20;;
37087;SDS011;23002;52.676;6.432;2024-03-22T14:12:00;13.60;;;6.05;;
37087;SDS011;23002;52.676;6.432;2024-03-22T14:14:26;11.10;;;5.43;;
37087;SDS011;23002;52.676;6.432;2024-03-22T14:16:52;13.57;;;5.63;;
37087;SDS011;23002;52.676;6.432;2024-03-22T14:19:19;12.27;;;6.38;;
37087;SDS011;23002;52.676;6.432;2024-03-22T14:21:45;20.08;;;8.05;;
37087;SDS011;23002;52.676;6.432;2024-03-22T14:24:12;10.27;;;5.53;;